createdAt,value
2018-06-21T00:00:57.218Z,3.80
2018-06-21T00:01:57.159Z,2.60
2018-06-21T00:02:57.108Z,4.30
2018-06-21T00:03:57.057Z,5.50
2018-06-21T00:04:56.993Z,4.00
2018-06-21T00:05:56.931Z,3.30
2018-06-21T00:06:56.850Z,3.60
2018-06-21T00:07:56.802Z,4.60
2018-06-21T00:08:56.741Z,4.40
2018-06-21T00:09:56.682Z,4.20
2018-06-21T00:10:56.616Z,4.80
2018-06-21T00:11:56.553Z,5.00
2018-06-21T00:12:56.501Z,3.50
2018-06-21T00:13:56.435Z,3.20
2018-06-21T00:14:56.372Z,5.30
2018-06-21T00:15:56.304Z,2.80
2018-06-21T00:16:56.299Z,3.10
2018-06-21T00:17:56.194Z,7.00
2018-06-21T00:18:56.131Z,4.80
2018-06-21T00:19:56.058Z,5.00
2018-06-21T00:20:56.003Z,6.10
2018-06-21T00:21:55.936Z,2.90
2018-06-21T00:22:55.880Z,7.50
2018-06-21T00:23:55.823Z,5.50
2018-06-21T00:24:55.753Z,4.00
2018-06-21T00:25:55.696Z,3.90
2018-06-21T00:26:55.630Z,3.70
2018-06-21T00:27:55.570Z,6.60
2018-06-21T00:28:55.514Z,5.20
2018-06-21T00:29:55.456Z,4.50
2018-06-21T00:30:55.380Z,3.20
2018-06-21T00:31:55.334Z,5.20
2018-06-21T00:32:55.265Z,2.80
2018-06-21T00:33:55.204Z,5.80
2018-06-21T00:34:55.137Z,5.60
2018-06-21T00:35:55.073Z,4.30
2018-06-21T00:36:55.024Z,6.50
2018-06-21T00:37:54.966Z,4.80
2018-06-21T00:38:54.899Z,5.60
2018-06-21T00:39:54.828Z,3.50
2018-06-21T00:40:54.779Z,5.30
2018-06-21T00:41:54.706Z,6.30
2018-06-21T00:42:54.663Z,5.60
2018-06-21T00:43:54.592Z,6.20
2018-06-21T00:44:54.533Z,6.50
2018-06-21T00:45:54.467Z,4.10
2018-06-21T00:46:54.407Z,2.60
2018-06-21T00:47:54.344Z,7.10
2018-06-21T00:48:54.277Z,4.40
2018-06-21T00:49:54.215Z,8.10
2018-06-21T00:50:54.160Z,6.00
2018-06-21T00:51:54.092Z,4.60
2018-06-21T00:52:54.042Z,4.50
2018-06-21T00:53:53.983Z,5.80
2018-06-21T00:54:53.927Z,3.00
2018-06-21T00:55:53.844Z,4.00
2018-06-21T00:56:53.796Z,3.80
2018-06-21T00:57:53.730Z,4.00
2018-06-21T00:58:53.658Z,2.30
2018-06-21T00:59:53.618Z,5.50
2018-06-21T01:00:53.542Z,3.60
2018-06-21T01:01:53.485Z,3.90
2018-06-21T01:02:53.419Z,5.10
2018-06-21T01:03:53.356Z,5.90
2018-06-21T01:04:53.286Z,3.00
2018-06-21T01:05:53.242Z,5.50
2018-06-21T01:06:53.167Z,3.10
2018-06-21T01:07:53.114Z,6.00
2018-06-21T01:08:53.045Z,6.70
2018-06-21T01:09:52.981Z,7.20
2018-06-21T01:10:52.915Z,4.80
2018-06-21T01:11:52.873Z,4.70
2018-06-21T01:12:52.803Z,10.50
2018-06-21T01:13:52.735Z,8.40
2018-06-21T01:14:52.678Z,8.60
2018-06-21T01:15:52.621Z,11.40
2018-06-21T01:16:52.555Z,11.40
2018-06-21T01:17:52.485Z,6.50
2018-06-21T01:18:52.431Z,9.00
2018-06-21T01:19:52.381Z,7.00
2018-06-21T01:20:52.400Z,9.40
2018-06-21T01:21:52.251Z,8.60
2018-06-21T01:22:52.178Z,10.50
2018-06-21T01:23:52.133Z,9.50
2018-06-21T01:24:52.060Z,8.90
2018-06-21T01:25:52.003Z,8.40
2018-06-21T01:26:51.937Z,12.30
2018-06-21T01:27:51.883Z,8.00
2018-06-21T01:28:51.815Z,6.70
2018-06-21T01:29:51.752Z,10.30
2018-06-21T01:30:51.694Z,10.70
2018-06-21T01:31:51.640Z,11.00
2018-06-21T01:32:51.583Z,6.70
2018-06-21T01:33:51.534Z,9.00
2018-06-21T01:34:51.453Z,6.50
2018-06-21T01:35:51.395Z,6.00
2018-06-21T01:36:51.322Z,8.10
2018-06-21T01:37:51.269Z,8.00
2018-06-21T01:38:51.193Z,10.20
2018-06-21T01:39:51.136Z,11.40
2018-06-21T01:40:51.086Z,10.20
2018-06-21T01:41:51.022Z,4.90
2018-06-21T01:42:50.961Z,6.90
2018-06-21T01:43:50.892Z,8.00
2018-06-21T01:44:50.839Z,6.30
2018-06-21T01:45:50.772Z,7.10
2018-06-21T01:46:50.727Z,6.60
2018-06-21T01:47:50.666Z,7.40
2018-06-21T01:48:50.590Z,5.80
2018-06-21T01:49:50.531Z,6.00
2018-06-21T01:50:50.465Z,5.70
2018-06-21T01:51:50.407Z,6.60
2018-06-21T01:52:50.337Z,5.50
2018-06-21T01:53:50.290Z,5.60
2018-06-21T01:54:50.225Z,5.80
2018-06-21T01:55:50.163Z,7.80
2018-06-21T01:56:50.107Z,4.90
2018-06-21T01:57:50.034Z,7.50
2018-06-21T01:58:49.984Z,6.10
2018-06-21T01:59:49.911Z,6.80
2018-06-21T02:00:49.848Z,6.30
2018-06-21T02:01:49.792Z,8.60
2018-06-21T02:02:49.741Z,6.10
2018-06-21T02:03:49.671Z,8.30
2018-06-21T02:04:49.620Z,9.60
2018-06-21T02:05:49.559Z,6.10
2018-06-21T02:06:49.496Z,9.00
2018-06-21T02:07:49.423Z,9.60
2018-06-21T02:08:49.361Z,7.10
2018-06-21T02:09:49.316Z,6.80
2018-06-21T02:10:49.251Z,7.80
2018-06-21T02:11:49.182Z,10.30
2018-06-21T02:12:49.127Z,5.40
2018-06-21T02:13:49.051Z,6.30
2018-06-21T02:14:49.012Z,9.10
2018-06-21T02:15:48.937Z,7.50
2018-06-21T02:16:48.881Z,5.80
2018-06-21T02:17:48.825Z,6.90
2018-06-21T02:18:48.758Z,7.70
2018-06-21T02:19:48.699Z,5.00
2018-06-21T02:20:48.627Z,5.60
2018-06-21T02:21:48.567Z,6.60
2018-06-21T02:22:48.504Z,8.30
2018-06-21T02:23:48.436Z,6.20
2018-06-21T02:24:48.397Z,7.80
2018-06-21T02:25:48.319Z,7.40
2018-06-21T02:26:48.254Z,9.30
2018-06-21T02:27:48.195Z,6.00
2018-06-21T02:28:48.123Z,6.30
2018-06-21T02:29:48.064Z,6.50
2018-06-21T02:30:48.004Z,8.80
2018-06-21T02:31:47.955Z,8.50
2018-06-21T02:32:47.927Z,7.00
2018-06-21T02:33:47.834Z,8.60
2018-06-21T02:34:47.775Z,6.50
2018-06-21T02:35:47.702Z,7.10
2018-06-21T02:36:47.641Z,9.50
2018-06-21T02:37:47.589Z,9.70
2018-06-21T02:38:47.528Z,5.40
2018-06-21T02:39:47.455Z,9.40
2018-06-21T02:40:47.390Z,8.00
2018-06-21T02:41:47.340Z,7.50
2018-06-21T02:42:47.288Z,7.60
2018-06-21T02:43:47.218Z,7.40
2018-06-21T02:44:47.143Z,7.20
2018-06-21T02:45:47.093Z,8.30
2018-06-21T02:46:47.079Z,7.50
2018-06-21T02:47:46.956Z,7.50
2018-06-21T02:48:46.905Z,6.00
2018-06-21T02:49:46.844Z,8.80
2018-06-21T02:50:46.785Z,5.20
2018-06-21T02:51:46.722Z,7.10
2018-06-21T02:52:46.653Z,7.50
2018-06-21T02:53:46.615Z,7.80
2018-06-21T02:54:46.542Z,12.00
2018-06-21T02:55:46.481Z,8.10
2018-06-21T02:56:46.411Z,5.50
2018-06-21T02:57:46.358Z,7.00
2018-06-21T02:58:46.282Z,5.10
2018-06-21T02:59:46.214Z,7.30
2018-06-21T03:00:46.167Z,6.30
2018-06-21T03:01:46.103Z,3.20
2018-06-21T03:02:46.043Z,5.10
2018-06-21T03:03:45.981Z,6.50
2018-06-21T03:04:45.926Z,3.20
2018-06-21T03:05:45.850Z,5.20
2018-06-21T03:06:45.801Z,3.30
2018-06-21T03:07:45.728Z,5.10
2018-06-21T03:08:45.678Z,4.50
2018-06-21T03:09:45.617Z,5.10
2018-06-21T03:10:45.552Z,3.30
2018-06-21T03:11:45.492Z,2.60
2018-06-21T03:12:45.434Z,4.50
2018-06-21T03:13:45.373Z,6.70
2018-06-21T03:14:45.306Z,4.20
2018-06-21T03:15:45.250Z,4.20
2018-06-21T03:16:45.188Z,7.60
2018-06-21T03:17:45.118Z,4.30
2018-06-21T03:18:45.049Z,4.80
2018-06-21T03:19:44.993Z,4.50
2018-06-21T03:20:44.934Z,5.70
2018-06-21T03:21:44.872Z,3.20
2018-06-21T03:22:44.817Z,2.30
2018-06-21T03:23:44.754Z,3.70
2018-06-21T03:24:44.680Z,4.30
2018-06-21T03:25:44.635Z,2.70
2018-06-21T03:26:44.577Z,2.90
2018-06-21T03:27:44.502Z,2.60
2018-06-21T03:28:44.446Z,3.60
2018-06-21T03:29:44.383Z,3.50
2018-06-21T03:30:44.306Z,4.60
2018-06-21T03:31:44.284Z,4.90
2018-06-21T03:32:44.199Z,4.70
2018-06-21T03:33:44.140Z,3.50
2018-06-21T03:34:44.068Z,4.30
2018-06-21T03:35:44.026Z,3.90
2018-06-21T03:36:43.942Z,4.70
2018-06-21T03:37:43.879Z,3.20
2018-06-21T03:38:43.824Z,4.20
2018-06-21T03:39:43.754Z,3.30
2018-06-21T03:40:43.691Z,3.00
2018-06-21T03:41:43.627Z,4.20
2018-06-21T03:42:43.616Z,3.20
2018-06-21T03:43:43.523Z,3.90
2018-06-21T03:44:43.459Z,3.60
2018-06-21T03:45:43.382Z,4.00
2018-06-21T03:46:43.320Z,3.80
2018-06-21T03:47:43.280Z,4.50
2018-06-21T03:48:43.200Z,3.50
2018-06-21T03:49:43.147Z,5.40
2018-06-21T03:50:43.080Z,3.20
2018-06-21T03:51:43.018Z,5.50
2018-06-21T03:52:42.947Z,4.60
2018-06-21T03:53:42.883Z,4.60
2018-06-21T03:54:42.816Z,6.40
2018-06-21T03:55:42.780Z,3.90
2018-06-21T03:56:42.709Z,3.40
2018-06-21T03:57:42.648Z,2.70
2018-06-21T03:58:42.582Z,5.60
2018-06-21T03:59:42.539Z,3.60
2018-06-21T04:00:42.491Z,4.60
2018-06-21T04:01:42.385Z,3.20
2018-06-21T04:02:42.330Z,3.20
2018-06-21T04:03:42.271Z,3.80
2018-06-21T04:04:42.218Z,2.70
2018-06-21T04:05:42.155Z,5.90
2018-06-21T04:06:42.093Z,5.40
2018-06-21T04:07:42.029Z,3.00
2018-06-21T04:08:41.965Z,2.50
2018-06-21T04:09:41.896Z,2.60
2018-06-21T04:10:41.830Z,4.30
2018-06-21T04:11:41.782Z,3.00
2018-06-21T04:12:41.722Z,2.90
2018-06-21T04:13:41.660Z,5.90
2018-06-21T04:14:41.581Z,3.50
2018-06-21T04:15:41.520Z,4.00
2018-06-21T04:16:41.468Z,4.40
2018-06-21T04:17:41.401Z,3.40
2018-06-21T04:18:41.343Z,3.50
2018-06-21T04:19:41.291Z,4.60
2018-06-21T04:20:41.215Z,3.60
2018-06-21T04:21:41.148Z,4.90
2018-06-21T04:22:41.093Z,3.50
2018-06-21T04:23:41.032Z,4.50
2018-06-21T04:24:40.976Z,5.60
2018-06-21T04:25:40.910Z,4.50
2018-06-21T04:26:40.850Z,3.60
2018-06-21T04:27:40.768Z,5.80
2018-06-21T04:28:40.726Z,4.60
2018-06-21T04:29:40.667Z,6.60
2018-06-21T04:30:40.593Z,3.20
2018-06-21T04:31:40.526Z,5.20
2018-06-21T04:32:40.460Z,4.60
2018-06-21T04:33:40.408Z,5.30
2018-06-21T04:34:40.345Z,3.30
2018-06-21T04:35:40.277Z,3.80
2018-06-21T04:36:40.205Z,4.00
2018-06-21T04:37:40.145Z,4.60
2018-06-21T04:38:40.091Z,4.10
2018-06-21T04:39:40.054Z,2.60
2018-06-21T04:40:39.974Z,5.20
2018-06-21T04:41:39.898Z,4.50
2018-06-21T04:42:39.830Z,4.50
2018-06-21T04:43:39.775Z,4.30
2018-06-21T04:44:39.715Z,5.10
2018-06-21T04:45:39.663Z,3.50
2018-06-21T04:46:39.591Z,2.70
2018-06-21T04:47:39.530Z,4.10
2018-06-21T04:48:39.474Z,2.60
2018-06-21T04:49:39.399Z,4.10
2018-06-21T04:50:39.345Z,3.00
2018-06-21T04:51:39.278Z,5.70
2018-06-21T04:52:39.236Z,4.80
2018-06-21T04:53:39.162Z,3.30
2018-06-21T04:54:39.103Z,3.10
2018-06-21T04:55:39.031Z,3.80
2018-06-21T04:56:38.969Z,5.20
2018-06-21T04:57:38.905Z,6.10
2018-06-21T04:58:38.843Z,6.90
2018-06-21T04:59:38.782Z,4.80
2018-06-21T05:00:38.728Z,3.70
2018-06-21T05:01:38.661Z,2.70
2018-06-21T05:02:38.598Z,4.00
2018-06-21T05:03:38.536Z,3.30
2018-06-21T05:04:38.462Z,3.50
2018-06-21T05:05:38.452Z,4.90
2018-06-21T05:06:38.347Z,3.40
2018-06-21T05:07:38.275Z,5.00
2018-06-21T05:08:38.216Z,5.00
2018-06-21T05:09:38.160Z,4.00
2018-06-21T05:10:38.097Z,4.30
2018-06-21T05:11:38.028Z,3.40
2018-06-21T05:12:37.974Z,3.90
2018-06-21T05:13:37.900Z,4.30
2018-06-21T05:14:37.845Z,4.90
2018-06-21T05:15:37.773Z,5.30
2018-06-21T05:16:37.731Z,4.80
2018-06-21T05:17:37.662Z,4.60
2018-06-21T05:18:37.585Z,3.80
2018-06-21T05:19:37.536Z,4.40
2018-06-21T05:20:37.467Z,4.70
2018-06-21T05:21:37.414Z,4.30
2018-06-21T05:22:37.331Z,7.30
2018-06-21T05:23:37.274Z,4.60
2018-06-21T05:24:37.214Z,3.90
2018-06-21T05:25:37.170Z,4.60
2018-06-21T05:26:37.090Z,4.00
2018-06-21T05:27:37.034Z,2.90
2018-06-21T05:28:36.961Z,4.00
2018-06-21T05:29:36.914Z,5.60
2018-06-21T05:30:36.849Z,2.90
2018-06-21T05:31:36.777Z,5.80
2018-06-21T05:32:36.719Z,4.10
2018-06-21T05:33:36.662Z,3.10
2018-06-21T05:34:36.598Z,4.40
2018-06-21T05:35:36.546Z,4.60
2018-06-21T05:36:36.463Z,3.70
2018-06-21T05:37:36.413Z,3.10
2018-06-21T05:38:36.340Z,6.70
2018-06-21T05:39:36.288Z,4.40
2018-06-21T05:40:36.223Z,4.70
2018-06-21T05:41:36.163Z,4.20
2018-06-21T05:42:36.088Z,5.20
2018-06-21T05:43:36.029Z,3.40
2018-06-21T05:44:35.966Z,5.00
2018-06-21T05:45:35.902Z,3.60
2018-06-21T05:46:35.857Z,4.60
2018-06-21T05:47:35.784Z,6.00
2018-06-21T05:48:35.730Z,4.50
2018-06-21T05:49:35.661Z,3.20
2018-06-21T05:50:35.603Z,4.70
2018-06-21T05:51:35.527Z,4.90
2018-06-21T05:52:35.470Z,5.50
2018-06-21T05:53:35.419Z,5.10
2018-06-21T05:54:35.346Z,5.20
2018-06-21T05:55:35.289Z,3.40
2018-06-21T05:56:35.251Z,4.90
2018-06-21T05:57:35.163Z,7.00
2018-06-21T05:58:35.099Z,4.00
2018-06-21T05:59:35.041Z,11.00
2018-06-21T06:00:34.976Z,5.40
2018-06-21T06:01:34.979Z,7.10
2018-06-21T06:02:34.860Z,4.40
2018-06-21T06:03:34.807Z,8.10
2018-06-21T06:04:34.727Z,8.00
2018-06-21T06:05:34.669Z,5.10
2018-06-21T06:06:34.615Z,4.60
2018-06-21T06:07:34.555Z,5.40
2018-06-21T06:08:34.546Z,4.80
2018-06-21T06:09:34.420Z,6.00
2018-06-21T06:10:34.401Z,5.60
2018-06-21T06:11:34.309Z,8.00
2018-06-21T06:12:34.248Z,8.50
2018-06-21T06:13:34.183Z,8.70
2018-06-21T06:14:34.141Z,10.60
2018-06-21T06:15:34.052Z,9.20
2018-06-21T06:16:34.004Z,8.40
2018-06-21T06:17:33.949Z,10.00
2018-06-21T06:18:33.868Z,10.30
2018-06-21T06:19:33.815Z,11.10
2018-06-21T06:20:33.753Z,9.80
2018-06-21T06:21:33.704Z,10.80
2018-06-21T06:22:33.634Z,10.80
2018-06-21T06:23:33.566Z,9.20
2018-06-21T06:24:33.521Z,10.20
2018-06-21T06:25:33.447Z,8.70
2018-06-21T06:26:33.394Z,9.60
2018-06-21T06:27:33.362Z,7.70
2018-06-21T06:28:33.339Z,7.70
2018-06-21T06:29:33.213Z,8.00
2018-06-21T06:30:33.157Z,7.90
2018-06-21T06:31:33.087Z,7.60
2018-06-21T06:32:33.043Z,11.20
2018-06-21T06:33:32.966Z,11.00
2018-06-21T06:34:32.904Z,12.60
2018-06-21T06:35:32.836Z,7.10
2018-06-21T06:36:32.793Z,8.60
2018-06-21T06:37:32.714Z,11.00
2018-06-21T06:38:32.665Z,8.30
2018-06-21T06:39:32.606Z,13.10
2018-06-21T06:40:32.684Z,10.60
2018-06-21T06:41:32.498Z,7.40
2018-06-21T06:42:32.428Z,7.10
2018-06-21T06:43:32.369Z,9.30
2018-06-21T06:44:32.301Z,8.60
2018-06-21T06:45:32.317Z,8.70
2018-06-21T06:46:32.181Z,8.30
2018-06-21T06:47:32.129Z,5.90
2018-06-21T06:48:32.065Z,8.00
2018-06-21T06:49:31.995Z,7.30
2018-06-21T06:50:31.941Z,7.00
2018-06-21T06:51:31.877Z,6.60
2018-06-21T06:52:31.825Z,8.50
2018-06-21T06:53:31.774Z,6.80
2018-06-21T06:54:31.763Z,6.50
2018-06-21T06:55:31.644Z,7.40
2018-06-21T06:56:31.595Z,6.20
2018-06-21T06:57:31.514Z,7.20
2018-06-21T06:58:31.462Z,9.30
2018-06-21T06:59:31.405Z,9.90
2018-06-21T07:00:31.343Z,6.70
2018-06-21T07:01:31.286Z,7.50
2018-06-21T07:02:31.229Z,6.80
2018-06-21T07:03:31.158Z,9.60
2018-06-21T07:04:31.109Z,10.10
2018-06-21T07:05:31.053Z,7.80
2018-06-21T07:06:30.997Z,9.10
2018-06-21T07:07:30.928Z,8.40
2018-06-21T07:08:30.898Z,8.40
2018-06-21T07:09:30.812Z,6.10
2018-06-21T07:10:30.747Z,8.00
2018-06-21T07:11:30.683Z,7.30
2018-06-21T07:12:30.643Z,9.10
2018-06-21T07:13:30.575Z,8.70
2018-06-21T07:14:30.562Z,8.40
2018-06-21T07:15:30.446Z,7.90
2018-06-21T07:16:30.397Z,8.20
2018-06-21T07:17:30.339Z,7.40
2018-06-21T07:18:30.265Z,8.10
2018-06-21T07:19:30.213Z,8.90
2018-06-21T07:20:30.158Z,9.10
2018-06-21T07:21:30.104Z,8.70
2018-06-21T07:22:30.033Z,8.30
2018-06-21T07:23:29.981Z,7.80
2018-06-21T07:24:29.922Z,9.30
2018-06-21T07:25:29.873Z,9.20
2018-06-21T07:26:29.795Z,6.50
2018-06-21T07:27:29.743Z,9.30
2018-06-21T07:28:29.740Z,8.50
2018-06-21T07:29:29.630Z,7.30
2018-06-21T07:30:29.554Z,8.70
2018-06-21T07:31:29.533Z,5.50
2018-06-21T07:32:29.446Z,9.60
2018-06-21T07:33:29.399Z,9.90
2018-06-21T07:34:29.331Z,7.70
2018-06-21T07:35:29.265Z,8.00
2018-06-21T07:36:29.220Z,7.00
2018-06-21T07:37:29.161Z,8.20
2018-06-21T07:38:29.105Z,9.00
2018-06-21T07:39:29.034Z,6.40
2018-06-21T07:40:28.974Z,7.10
2018-06-21T07:41:28.916Z,10.40
2018-06-21T07:42:28.853Z,8.10
2018-06-21T07:43:28.805Z,6.90
2018-06-21T07:44:28.747Z,6.90
2018-06-21T07:45:28.679Z,5.00
2018-06-21T07:46:28.616Z,8.50
2018-06-21T07:47:28.554Z,8.30
2018-06-21T07:48:28.515Z,10.60
2018-06-21T07:49:28.451Z,14.30
2018-06-21T07:50:28.376Z,9.70
2018-06-21T07:51:28.335Z,12.40
2018-06-21T07:52:28.273Z,10.80
2018-06-21T07:53:28.209Z,9.30
2018-06-21T07:54:28.141Z,12.20
2018-06-21T07:55:28.094Z,14.20
2018-06-21T07:56:28.040Z,11.10
2018-06-21T07:57:27.974Z,14.80
2018-06-21T07:58:27.918Z,12.50
2018-06-21T07:59:27.855Z,11.50
2018-06-21T08:00:27.789Z,12.80
2018-06-21T08:01:27.745Z,14.60
2018-06-21T08:02:27.685Z,12.70
2018-06-21T08:03:27.628Z,12.20
2018-06-21T08:04:27.573Z,13.10
2018-06-21T08:05:27.501Z,13.40
2018-06-21T08:06:27.462Z,10.30
2018-06-21T08:07:27.393Z,13.30
2018-06-21T08:08:27.329Z,14.60
2018-06-21T08:09:27.278Z,12.50
2018-06-21T08:10:27.223Z,15.40
2018-06-21T08:11:27.144Z,11.60
2018-06-21T08:12:27.104Z,11.60
2018-06-21T08:13:27.032Z,9.70
2018-06-21T08:14:26.995Z,9.40
2018-06-21T08:15:26.913Z,7.70
2018-06-21T08:16:26.875Z,8.90
2018-06-21T08:17:26.800Z,11.10
2018-06-21T08:18:26.740Z,11.00
2018-06-21T08:19:26.681Z,9.00
2018-06-21T08:20:26.641Z,11.30
2018-06-21T08:21:26.576Z,7.10
2018-06-21T08:22:26.520Z,8.70
2018-06-21T08:23:26.448Z,11.00
2018-06-21T08:24:26.396Z,9.00
2018-06-21T08:25:26.352Z,9.00
2018-06-21T08:26:26.291Z,12.50
2018-06-21T08:27:26.240Z,8.70
2018-06-21T08:28:26.155Z,12.60
2018-06-21T08:29:26.111Z,10.80
2018-06-21T08:30:26.077Z,10.70
2018-06-21T08:31:25.985Z,8.20
2018-06-21T08:32:25.938Z,9.20
2018-06-21T08:33:25.883Z,10.10
2018-06-21T08:34:25.808Z,10.70
2018-06-21T08:35:25.762Z,8.40
2018-06-21T08:36:25.707Z,11.60
2018-06-21T08:37:25.640Z,9.30
2018-06-21T08:38:25.578Z,8.40
2018-06-21T08:39:25.522Z,10.30
2018-06-21T08:40:25.505Z,10.30
2018-06-21T08:41:25.425Z,8.70
2018-06-21T08:42:25.361Z,8.10
2018-06-21T08:43:25.287Z,8.10
2018-06-21T08:44:25.241Z,7.60
2018-06-21T08:45:25.190Z,9.90
2018-06-21T08:46:25.141Z,9.10
2018-06-21T08:47:25.084Z,8.40
2018-06-21T08:48:25.002Z,10.60
2018-06-21T08:49:24.943Z,11.10
2018-06-21T08:50:24.903Z,10.50
2018-06-21T08:51:24.837Z,8.80
2018-06-21T08:52:24.772Z,9.60
2018-06-21T08:53:24.710Z,9.60
2018-06-21T08:54:24.662Z,11.60
2018-06-21T08:55:24.598Z,10.40
2018-06-21T08:56:24.548Z,10.40
2018-06-21T08:57:24.483Z,10.00
2018-06-21T08:58:24.443Z,8.10
2018-06-21T08:59:24.364Z,11.70
2018-06-21T09:00:24.320Z,11.50
2018-06-21T09:01:24.250Z,10.10
2018-06-21T09:02:24.205Z,8.60
2018-06-21T09:03:24.135Z,7.60
2018-06-21T09:04:24.097Z,7.40
2018-06-21T09:05:24.020Z,9.20
2018-06-21T09:06:23.961Z,12.30
2018-06-21T09:07:23.906Z,10.90
2018-06-21T09:08:23.863Z,9.50
2018-06-21T09:09:23.793Z,7.60
2018-06-21T09:10:23.737Z,8.40
2018-06-21T09:11:23.695Z,7.70
2018-06-21T09:12:23.631Z,8.10
2018-06-21T09:13:23.564Z,11.20
2018-06-21T09:14:23.520Z,8.80
2018-06-21T09:15:23.534Z,7.70
2018-06-21T09:16:23.403Z,10.50
2018-06-21T09:17:23.336Z,9.90
2018-06-21T09:18:23.285Z,9.40
2018-06-21T09:19:23.235Z,5.80
2018-06-21T09:20:23.161Z,7.80
2018-06-21T09:21:23.120Z,8.10
2018-06-21T09:22:23.059Z,10.60
2018-06-21T09:23:23.005Z,9.30
2018-06-21T09:24:22.944Z,7.30
2018-06-21T09:25:22.874Z,6.80
2018-06-21T09:26:22.817Z,5.00
2018-06-21T09:27:22.757Z,6.10
2018-06-21T09:28:22.724Z,5.60
2018-06-21T09:29:22.646Z,7.40
2018-06-21T09:30:22.598Z,8.20
2018-06-21T09:31:22.547Z,5.90
2018-06-21T09:32:22.487Z,7.50
2018-06-21T09:33:22.525Z,6.70
2018-06-21T09:34:22.382Z,5.60
2018-06-21T09:35:22.313Z,10.00
2018-06-21T09:36:22.268Z,7.30
2018-06-21T09:37:22.196Z,5.50
2018-06-21T09:38:22.130Z,4.60
2018-06-21T09:39:22.078Z,8.20
2018-06-21T09:40:22.018Z,6.90
2018-06-21T09:41:21.966Z,7.10
2018-06-21T09:42:21.906Z,4.40
2018-06-21T09:43:21.863Z,5.70
2018-06-21T09:44:21.805Z,3.60
2018-06-21T09:45:21.736Z,7.20
2018-06-21T09:46:21.691Z,5.30
2018-06-21T09:47:21.621Z,5.70
2018-06-21T09:48:21.561Z,7.90
2018-06-21T09:49:21.508Z,5.60
2018-06-21T09:50:21.446Z,7.00
2018-06-21T09:51:21.394Z,5.70
2018-06-21T09:52:21.332Z,5.50
2018-06-21T09:53:21.293Z,4.30
2018-06-21T09:54:21.242Z,5.10
2018-06-21T09:55:21.162Z,5.40
2018-06-21T09:56:21.110Z,5.20
2018-06-21T09:57:21.044Z,5.80
2018-06-21T09:58:21.017Z,3.40
2018-06-21T09:59:20.940Z,4.30
2018-06-21T10:00:20.897Z,5.00
2018-06-21T10:01:20.818Z,5.50
2018-06-21T10:02:20.787Z,4.80
2018-06-21T10:03:20.706Z,5.20
2018-06-21T10:04:20.669Z,5.30
2018-06-21T10:05:20.611Z,5.60
2018-06-21T10:06:20.552Z,5.30
2018-06-21T10:07:20.494Z,6.60
2018-06-21T10:08:20.440Z,4.40
2018-06-21T10:09:20.372Z,6.70
2018-06-21T10:10:20.370Z,4.80
2018-06-21T10:11:20.268Z,5.40
2018-06-21T10:12:20.205Z,5.20
2018-06-21T10:13:20.184Z,7.90
2018-06-21T10:14:20.128Z,6.20
2018-06-21T10:15:20.052Z,3.70
2018-06-21T10:16:19.987Z,6.10
2018-06-21T10:17:19.930Z,8.60
2018-06-21T10:18:19.868Z,9.10
2018-06-21T10:19:19.813Z,5.70
2018-06-21T10:20:19.767Z,4.20
2018-06-21T10:21:19.693Z,3.90
2018-06-21T10:22:19.664Z,4.80
2018-06-21T10:23:19.580Z,7.80
2018-06-21T10:24:19.529Z,6.10
2018-06-21T10:25:19.474Z,6.20
2018-06-21T10:26:19.425Z,3.20
2018-06-21T10:27:19.346Z,6.50
2018-06-21T10:28:19.309Z,4.20
2018-06-21T10:29:19.253Z,3.50
2018-06-21T10:30:19.199Z,5.30
2018-06-21T10:31:19.133Z,3.40
2018-06-21T10:32:19.078Z,4.80
2018-06-21T10:33:19.021Z,6.50
2018-06-21T10:34:18.988Z,5.50
2018-06-21T10:35:18.906Z,4.20
2018-06-21T10:36:18.857Z,4.40
2018-06-21T10:37:18.812Z,5.10
2018-06-21T10:38:18.730Z,5.70
2018-06-21T10:39:18.677Z,6.20
2018-06-21T10:40:18.621Z,5.20
2018-06-21T10:41:18.559Z,5.50
2018-06-21T10:42:18.517Z,7.20
2018-06-21T10:43:18.453Z,6.20
2018-06-21T10:44:18.402Z,4.90
2018-06-21T10:45:18.345Z,6.80
2018-06-21T10:46:18.284Z,7.10
2018-06-21T10:47:18.224Z,7.00
2018-06-21T10:48:18.180Z,6.10
2018-06-21T10:49:18.144Z,4.90
2018-06-21T10:50:18.065Z,5.10
2018-06-21T10:51:18.005Z,4.90
2018-06-21T10:52:17.950Z,5.20
2018-06-21T10:53:17.897Z,5.20
2018-06-21T10:54:17.840Z,4.10
2018-06-21T10:55:17.781Z,5.70
2018-06-21T10:56:17.729Z,4.90
2018-06-21T10:57:17.668Z,4.10
2018-06-21T10:58:17.604Z,4.50
2018-06-21T10:59:17.548Z,5.80
2018-06-21T11:00:17.507Z,3.60
2018-06-21T11:01:17.438Z,5.60
2018-06-21T11:02:17.381Z,5.90
2018-06-21T11:03:17.412Z,7.30
2018-06-21T11:04:17.283Z,4.70
2018-06-21T11:05:17.231Z,5.10
2018-06-21T11:06:17.173Z,4.50
2018-06-21T11:07:17.096Z,5.50
2018-06-21T11:08:17.042Z,4.20
2018-06-21T11:09:16.985Z,5.30
2018-06-21T11:10:16.941Z,4.20
2018-06-21T11:11:16.875Z,6.20
2018-06-21T11:12:16.831Z,4.90
2018-06-21T11:13:16.777Z,6.00
2018-06-21T11:14:16.704Z,4.60
2018-06-21T11:15:16.648Z,4.40
2018-06-21T11:16:16.606Z,7.50
2018-06-21T11:17:16.535Z,5.60
2018-06-21T11:18:16.496Z,3.40
2018-06-21T11:19:16.424Z,5.00
2018-06-21T11:20:16.389Z,4.90
2018-06-21T11:21:16.328Z,6.60
2018-06-21T11:22:16.263Z,5.40
2018-06-21T11:23:16.199Z,4.80
2018-06-21T11:24:16.139Z,4.40
2018-06-21T11:25:16.103Z,5.80
2018-06-21T11:26:16.049Z,3.70
2018-06-21T11:27:15.990Z,5.70
2018-06-21T11:28:15.920Z,5.30
2018-06-21T11:29:15.859Z,4.70
2018-06-21T11:30:15.808Z,2.90
2018-06-21T11:31:15.750Z,3.80
2018-06-21T11:32:15.706Z,8.10
2018-06-21T11:33:15.633Z,5.40
2018-06-21T11:34:15.591Z,6.30
2018-06-21T11:35:15.533Z,4.30
2018-06-21T11:36:15.474Z,5.50
2018-06-21T11:37:15.418Z,7.50
2018-06-21T11:38:15.406Z,4.70
2018-06-21T11:39:15.299Z,5.00
2018-06-21T11:40:15.257Z,4.80
2018-06-21T11:41:15.200Z,6.80
2018-06-21T11:42:15.142Z,13.00
2018-06-21T11:43:15.082Z,10.60
2018-06-21T11:44:15.014Z,8.90
2018-06-21T11:45:14.988Z,4.60
2018-06-21T11:46:14.904Z,6.50
2018-06-21T11:47:14.863Z,6.50
2018-06-21T11:48:14.793Z,11.90
2018-06-21T11:49:14.736Z,11.60
2018-06-21T11:50:14.678Z,5.70
2018-06-21T11:51:14.619Z,4.40
2018-06-21T11:52:14.584Z,3.20
2018-06-21T11:53:14.508Z,3.40
2018-06-21T11:54:14.453Z,6.80
2018-06-21T11:55:14.411Z,8.50
2018-06-21T11:56:14.344Z,5.30
2018-06-21T11:57:14.305Z,6.70
2018-06-21T11:58:14.228Z,5.00
2018-06-21T11:59:14.185Z,3.90
2018-06-21T12:00:14.138Z,7.10
2018-06-21T12:01:14.080Z,5.00
2018-06-21T12:02:14.020Z,2.70
2018-06-21T12:03:13.958Z,3.60
2018-06-21T12:04:13.914Z,5.50
2018-06-21T12:05:13.851Z,3.00
2018-06-21T12:06:13.782Z,4.50
2018-06-21T12:07:13.718Z,5.10
2018-06-21T12:08:13.667Z,3.10
2018-06-21T12:09:13.621Z,4.80
2018-06-21T12:10:13.559Z,4.50
2018-06-21T12:11:13.516Z,5.20
2018-06-21T12:12:13.443Z,4.20
2018-06-21T12:13:13.401Z,3.60
2018-06-21T12:14:13.407Z,3.40
2018-06-21T12:15:13.295Z,3.00
2018-06-21T12:16:13.235Z,3.60
2018-06-21T12:17:13.172Z,7.70
2018-06-21T12:18:13.125Z,4.80
2018-06-21T12:19:13.046Z,3.80
2018-06-21T12:20:12.996Z,4.10
2018-06-21T12:21:12.957Z,3.80
2018-06-21T12:22:12.920Z,5.20
2018-06-21T12:23:12.824Z,3.60
2018-06-21T12:24:12.767Z,3.70
2018-06-21T12:25:12.725Z,3.80
2018-06-21T12:26:12.782Z,5.00
2018-06-21T12:27:12.600Z,3.60
2018-06-21T12:28:12.542Z,8.30
2018-06-21T12:29:12.486Z,4.90
2018-06-21T12:30:12.426Z,3.70
2018-06-21T12:31:12.383Z,3.30
2018-06-21T12:32:12.324Z,3.50
2018-06-21T12:33:12.272Z,2.60
2018-06-21T12:34:12.202Z,2.70
2018-06-21T12:35:12.171Z,4.20
2018-06-21T12:36:12.107Z,3.30
2018-06-21T12:37:12.053Z,3.00
2018-06-21T12:38:11.978Z,3.00
2018-06-21T12:39:11.937Z,4.20
2018-06-21T12:40:11.862Z,3.00
2018-06-21T12:41:11.826Z,3.30
2018-06-21T12:42:11.768Z,5.40
2018-06-21T12:43:11.711Z,4.10
2018-06-21T12:44:11.635Z,4.40
2018-06-21T12:45:11.582Z,3.40
2018-06-21T12:46:11.559Z,5.00
2018-06-21T12:47:11.487Z,3.00
2018-06-21T12:48:11.418Z,3.80
2018-06-21T12:49:11.369Z,3.30
2018-06-21T12:50:11.313Z,3.00
2018-06-21T12:51:11.238Z,3.00
2018-06-21T12:52:11.188Z,3.20
2018-06-21T12:53:11.151Z,5.60
2018-06-21T12:54:11.089Z,4.20
2018-06-21T12:55:11.022Z,4.20
2018-06-21T12:56:10.977Z,4.00
2018-06-21T12:57:10.927Z,4.40
2018-06-21T12:58:10.873Z,4.20
2018-06-21T12:59:10.808Z,4.10
2018-06-21T13:00:10.735Z,3.40
2018-06-21T13:01:10.684Z,4.60
2018-06-21T13:02:10.639Z,4.40
2018-06-21T13:03:10.568Z,4.70
2018-06-21T13:04:10.513Z,4.50
2018-06-21T13:05:10.458Z,4.10
2018-06-21T13:06:10.413Z,4.20
2018-06-21T13:07:10.355Z,4.60
2018-06-21T13:08:10.305Z,4.90
2018-06-21T13:09:10.243Z,4.10
2018-06-21T13:10:10.185Z,3.60
2018-06-21T13:11:10.133Z,3.90
2018-06-21T13:12:10.058Z,5.40
2018-06-21T13:13:10.008Z,3.60
2018-06-21T13:14:09.955Z,5.80
2018-06-21T13:15:09.897Z,4.00